sensor_id;sensor_type;location;lat;lon;timestamp;P1;durP1;ratioP1;P2;durP2;ratioP2
34491;SDS011;20737;49.908;8.126;2022-11-18T00:01:52;10.30;;;5.85;;
34491;SDS011;20737;49.908;8.126;2022-11-18T00:04:18;6.13;;;4.78;;
34491;SDS011;20737;49.908;8.126;2022-11-18T00:06:45;7.57;;;4.75;;
34491;SDS011;20737;49.908;8.126;2022-11-18T00:09:12;7.18;;;4.25;;
34491;SDS011;20737;49.908;8.126;2022-11-18T00:11:39;6.80;;;4.53;;
34491;SDS011;20737;49.908;8.126;2022-11-18T00:14:24;6.45;;;4.20;;
34491;SDS011;20737;49.908;8.126;2022-11-18T00:16:52;7.88;;;4.28;;
34491;SDS011;20737;49.908;8.126;2022-11-18T00:19:22;5.78;;;4.32;;
34491;SDS011;20737;49.908;8.126;2022-11-18T00:21:49;4.90;;;3.92;;
34491;SDS011;20737;49.908;8.126;2022-11-18T00:24:17;7.20;;;5.07;;
34491;SDS011;20737;49.908;8.126;2022-11-18T00:26:43;11.40;;;4.30;;
34491;SDS011;20737;49.908;8.126;2022-11-18T00:29:11;6.85;;;4.68;;
34491;SDS011;20737;49.908;8.126;2022-11-18T00:31:39;5.63;;;4.20;;
34491;SDS011;20737;49.908;8.126;2022-11-18T00:34:06;6.13;;;4.90;;
34491;SDS011;20737;49.908;8.126;2022-11-18T00:36:36;8.00;;;4.82;;
34491;SDS011;20737;49.908;8.126;2022-11-18T00:39:02;6.22;;;4.50;;
34491;SDS011;20737;49.908;8.126;2022-11-18T00:41:29;9.38;;;5.70;;
34491;SDS011;20737;49.908;8.126;2022-11-18T00:44:10;9.55;;;6.07;;
34491;SDS011;20737;49.908;8.126;2022-11-18T00:46:38;8.30;;;5.35;;
34491;SDS011;20737;49.908;8.126;2022-11-18T00:49:05;9.15;;;5.50;;
34491;SDS011;20737;49.908;8.126;2022-11-18T00:51:32;7.13;;;4.90;;
34491;SDS011;20737;49.908;8.126;2022-11-18T00:53:58;5.90;;;5.05;;
34491;SDS011;20737;49.908;8.126;2022-11-18T00:56:25;8.10;;;5.32;;
34491;SDS011;20737;49.908;8.126;2022-11-18T00:58:52;10.20;;;6.15;;
34491;SDS011;20737;49.908;8.126;2022-11-18T01:01:19;8.23;;;5.40;;
34491;SDS011;20737;49.908;8.126;2022-11-18T01:03:47;5.32;;;4.68;;
34491;SDS011;20737;49.908;8.126;2022-11-18T01:06:14;8.63;;;4.80;;
34491;SDS011;20737;49.908;8.126;2022-11-18T01:08:40;7.63;;;4.82;;
34491;SDS011;20737;49.908;8.126;2022-11-18T01:11:07;8.90;;;5.40;;
34491;SDS011;20737;49.908;8.126;2022-11-18T01:13:52;6.03;;;4.03;;
34491;SDS011;20737;49.908;8.126;2022-11-18T01:16:19;6.75;;;4.07;;
34491;SDS011;20737;49.908;8.126;2022-11-18T01:18:48;6.95;;;4.43;;
34491;SDS011;20737;49.908;8.126;2022-11-18T01:21:15;8.07;;;4.70;;
34491;SDS011;20737;49.908;8.126;2022-11-18T01:23:42;7.20;;;4.40;;
34491;SDS011;20737;49.908;8.126;2022-11-18T01:26:11;6.47;;;5.00;;
34491;SDS011;20737;49.908;8.126;2022-11-18T01:28:39;8.25;;;4.70;;
34491;SDS011;20737;49.908;8.126;2022-11-18T01:31:07;5.18;;;3.97;;
34491;SDS011;20737;49.908;8.126;2022-11-18T01:33:35;6.43;;;4.07;;
34491;SDS011;20737;49.908;8.126;2022-11-18T01:36:03;6.13;;;3.75;;
34491;SDS011;20737;49.908;8.126;2022-11-18T01:38:39;6.88;;;4.45;;
34491;SDS011;20737;49.908;8.126;2022-11-18T01:41:06;5.75;;;4.15;;
34491;SDS011;20737;49.908;8.126;2022-11-18T01:43:44;5.57;;;3.80;;
34491;SDS011;20737;49.908;8.126;2022-11-18T01:46:14;5.07;;;3.70;;
34491;SDS011;20737;49.908;8.126;2022-11-18T01:48:41;5.53;;;3.67;;
34491;SDS011;20737;49.908;8.126;2022-11-18T01:51:11;7.40;;;4.22;;
34491;SDS011;20737;49.908;8.126;2022-11-18T01:53:42;5.35;;;3.40;;
34491;SDS011;20737;49.908;8.126;2022-11-18T01:56:13;8.32;;;4.28;;
34491;SDS011;20737;49.908;8.126;2022-11-18T01:58:42;7.95;;;4.28;;
34491;SDS011;20737;49.908;8.126;2022-11-18T02:01:11;7.57;;;4.60;;
34491;SDS011;20737;49.908;8.126;2022-11-18T02:03:38;8.27;;;4.43;;
34491;SDS011;20737;49.908;8.126;2022-11-18T02:06:06;6.32;;;4.65;;
34491;SDS011;20737;49.908;8.126;2022-11-18T02:08:36;7.50;;;5.35;;
34491;SDS011;20737;49.908;8.126;2022-11-18T02:11:04;8.48;;;5.68;;
34491;SDS011;20737;49.908;8.126;2022-11-18T02:13:54;7.15;;;4.90;;
34491;SDS011;20737;49.908;8.126;2022-11-18T02:16:22;7.45;;;4.93;;
34491;SDS011;20737;49.908;8.126;2022-11-18T02:18:58;7.15;;;4.80;;
34491;SDS011;20737;49.908;8.126;2022-11-18T02:21:27;8.60;;;5.05;;
34491;SDS011;20737;49.908;8.126;2022-11-18T02:27:20;9.25;;;5.90;;
34491;SDS011;20737;49.908;8.126;2022-11-18T02:29:57;6.38;;;4.68;;
34491;SDS011;20737;49.908;8.126;2022-11-18T02:32:28;6.07;;;4.95;;
34491;SDS011;20737;49.908;8.126;2022-11-18T02:35:00;8.85;;;5.25;;
34491;SDS011;20737;49.908;8.126;2022-11-18T02:37:34;7.18;;;4.85;;
34491;SDS011;20737;49.908;8.126;2022-11-18T02:40:08;6.43;;;4.38;;
34491;SDS011;20737;49.908;8.126;2022-11-18T02:42:38;6.00;;;4.28;;
34491;SDS011;20737;49.908;8.126;2022-11-18T02:45:11;8.57;;;5.63;;
34491;SDS011;20737;49.908;8.126;2022-11-18T02:47:43;7.40;;;4.55;;
34491;SDS011;20737;49.908;8.126;2022-11-18T02:50:13;6.97;;;4.32;;
34491;SDS011;20737;49.908;8.126;2022-11-18T02:52:42;7.20;;;4.75;;
34491;SDS011;20737;49.908;8.126;2022-11-18T02:55:11;6.72;;;4.95;;
34491;SDS011;20737;49.908;8.126;2022-11-18T02:57:39;6.50;;;4.65;;
34491;SDS011;20737;49.908;8.126;2022-11-18T03:00:09;7.60;;;4.53;;
34491;SDS011;20737;49.908;8.126;2022-11-18T03:02:39;9.20;;;4.88;;
34491;SDS011;20737;49.908;8.126;2022-11-18T03:05:06;9.48;;;5.50;;
34491;SDS011;20737;49.908;8.126;2022-11-18T03:07:40;9.02;;;4.93;;
34491;SDS011;20737;49.908;8.126;2022-11-18T03:10:11;9.52;;;5.15;;
34491;SDS011;20737;49.908;8.126;2022-11-18T03:12:42;8.45;;;4.95;;
34491;SDS011;20737;49.908;8.126;2022-11-18T03:15:20;10.07;;;5.95;;
34491;SDS011;20737;49.908;8.126;2022-11-18T03:17:53;9.43;;;5.72;;
34491;SDS011;20737;49.908;8.126;2022-11-18T03:20:26;9.63;;;5.40;;
34491;SDS011;20737;49.908;8.126;2022-11-18T03:22:56;8.23;;;5.70;;
34491;SDS011;20737;49.908;8.126;2022-11-18T03:25:30;9.93;;;5.57;;
34491;SDS011;20737;49.908;8.126;2022-11-18T03:28:07;8.10;;;5.13;;
34491;SDS011;20737;49.908;8.126;2022-11-18T03:33:07;8.90;;;4.88;;
34491;SDS011;20737;49.908;8.126;2022-11-18T03:35:38;8.75;;;5.60;;
34491;SDS011;20737;49.908;8.126;2022-11-18T03:38:10;10.13;;;5.90;;
34491;SDS011;20737;49.908;8.126;2022-11-18T03:40:41;7.68;;;5.35;;
34491;SDS011;20737;49.908;8.126;2022-11-18T03:43:12;9.57;;;5.65;;
34491;SDS011;20737;49.908;8.126;2022-11-18T03:45:44;12.15;;;5.95;;
34491;SDS011;20737;49.908;8.126;2022-11-18T03:48:13;13.77;;;5.45;;
34491;SDS011;20737;49.908;8.126;2022-11-18T03:50:42;8.98;;;4.85;;
34491;SDS011;20737;49.908;8.126;2022-11-18T03:53:13;7.28;;;5.07;;
34491;SDS011;20737;49.908;8.126;2022-11-18T03:55:43;10.50;;;5.53;;
34491;SDS011;20737;49.908;8.126;2022-11-18T03:58:15;8.95;;;4.65;;
34491;SDS011;20737;49.908;8.126;2022-11-18T04:00:48;11.83;;;5.53;;
34491;SDS011;20737;49.908;8.126;2022-11-18T04:03:21;10.98;;;5.63;;
34491;SDS011;20737;49.908;8.126;2022-11-18T04:05:50;11.40;;;5.45;;
34491;SDS011;20737;49.908;8.126;2022-11-18T04:08:22;10.73;;;5.43;;
34491;SDS011;20737;49.908;8.126;2022-11-18T04:10:54;12.25;;;5.65;;
34491;SDS011;20737;49.908;8.126;2022-11-18T04:13:27;9.88;;;5.30;;
34491;SDS011;20737;49.908;8.126;2022-11-18T04:15:57;8.40;;;5.50;;
34491;SDS011;20737;49.908;8.126;2022-11-18T04:18:24;9.32;;;5.53;;
34491;SDS011;20737;49.908;8.126;2022-11-18T04:20:51;11.30;;;5.60;;
34491;SDS011;20737;49.908;8.126;2022-11-18T04:23:18;9.52;;;5.22;;
34491;SDS011;20737;49.908;8.126;2022-11-18T04:25:45;8.38;;;5.22;;
34491;SDS011;20737;49.908;8.126;2022-11-18T04:28:12;10.27;;;5.68;;
34491;SDS011;20737;49.908;8.126;2022-11-18T04:30:38;8.88;;;5.60;;
34491;SDS011;20737;49.908;8.126;2022-11-18T04:33:06;12.38;;;5.60;;
34491;SDS011;20737;49.908;8.126;2022-11-18T04:35:33;12.77;;;5.60;;
34491;SDS011;20737;49.908;8.126;2022-11-18T04:38:00;9.82;;;5.15;;
34491;SDS011;20737;49.908;8.126;2022-11-18T04:40:26;7.60;;;4.82;;
34491;SDS011;20737;49.908;8.126;2022-11-18T04:42:53;8.55;;;5.25;;
34491;SDS011;20737;49.908;8.126;2022-11-18T04:45:20;11.82;;;5.97;;
34491;SDS011;20737;49.908;8.126;2022-11-18T04:47:47;7.25;;;5.25;;
34491;SDS011;20737;49.908;8.126;2022-11-18T04:50:15;9.18;;;5.35;;
34491;SDS011;20737;49.908;8.126;2022-11-18T04:52:42;11.45;;;5.40;;
34491;SDS011;20737;49.908;8.126;2022-11-18T04:55:08;12.27;;;5.75;;
34491;SDS011;20737;49.908;8.126;2022-11-18T04:57:35;9.38;;;5.65;;
34491;SDS011;20737;49.908;8.126;2022-11-18T05:00:02;8.77;;;5.63;;
34491;SDS011;20737;49.908;8.126;2022-11-18T05:02:30;11.25;;;5.75;;
34491;SDS011;20737;49.908;8.126;2022-11-18T05:04:57;8.82;;;5.28;;
34491;SDS011;20737;49.908;8.126;2022-11-18T05:07:25;8.73;;;5.13;;
34491;SDS011;20737;49.908;8.126;2022-11-18T05:09:51;8.90;;;4.95;;
34491;SDS011;20737;49.908;8.126;2022-11-18T05:12:18;8.90;;;5.43;;
34491;SDS011;20737;49.908;8.126;2022-11-18T05:15:02;8.55;;;5.50;;
34491;SDS011;20737;49.908;8.126;2022-11-18T05:17:33;9.93;;;5.57;;
34491;SDS011;20737;49.908;8.126;2022-11-18T05:19:59;8.38;;;5.03;;
34491;SDS011;20737;49.908;8.126;2022-11-18T05:22:27;10.82;;;5.43;;
34491;SDS011;20737;49.908;8.126;2022-11-18T05:24:54;10.77;;;6.38;;
34491;SDS011;20737;49.908;8.126;2022-11-18T05:27:21;11.27;;;6.10;;
34491;SDS011;20737;49.908;8.126;2022-11-18T05:29:48;12.13;;;6.03;;
34491;SDS011;20737;49.908;8.126;2022-11-18T05:32:14;9.70;;;6.32;;
34491;SDS011;20737;49.908;8.126;2022-11-18T05:34:41;9.80;;;6.47;;
34491;SDS011;20737;49.908;8.126;2022-11-18T05:37:08;10.13;;;6.30;;
34491;SDS011;20737;49.908;8.126;2022-11-18T05:39:36;10.95;;;6.85;;
34491;SDS011;20737;49.908;8.126;2022-11-18T05:42:03;10.27;;;6.47;;
34491;SDS011;20737;49.908;8.126;2022-11-18T05:44:48;10.40;;;6.35;;
34491;SDS011;20737;49.908;8.126;2022-11-18T05:47:15;9.77;;;6.78;;
34491;SDS011;20737;49.908;8.126;2022-11-18T05:49:42;10.55;;;5.45;;
34491;SDS011;20737;49.908;8.126;2022-11-18T05:52:09;12.13;;;6.00;;
34491;SDS011;20737;49.908;8.126;2022-11-18T05:54:38;8.98;;;5.88;;
34491;SDS011;20737;49.908;8.126;2022-11-18T05:59:36;10.18;;;5.43;;
34491;SDS011;20737;49.908;8.126;2022-11-18T06:02:03;9.40;;;6.00;;
34491;SDS011;20737;49.908;8.126;2022-11-18T06:04:36;12.40;;;6.17;;
34491;SDS011;20737;49.908;8.126;2022-11-18T06:07:06;9.63;;;6.18;;
34491;SDS011;20737;49.908;8.126;2022-11-18T06:09:40;11.85;;;6.45;;
34491;SDS011;20737;49.908;8.126;2022-11-18T06:12:11;8.60;;;5.60;;
34491;SDS011;20737;49.908;8.126;2022-11-18T06:14:40;12.45;;;6.50;;
34491;SDS011;20737;49.908;8.126;2022-11-18T06:17:13;8.70;;;5.38;;
34491;SDS011;20737;49.908;8.126;2022-11-18T06:19:43;11.57;;;6.80;;
34491;SDS011;20737;49.908;8.126;2022-11-18T06:22:10;9.02;;;4.38;;
34491;SDS011;20737;49.908;8.126;2022-11-18T06:24:39;9.55;;;5.38;;
34491;SDS011;20737;49.908;8.126;2022-11-18T06:27:07;9.48;;;5.38;;
34491;SDS011;20737;49.908;8.126;2022-11-18T06:29:34;6.43;;;4.00;;
34491;SDS011;20737;49.908;8.126;2022-11-18T06:32:01;6.15;;;3.55;;
34491;SDS011;20737;49.908;8.126;2022-11-18T06:34:28;5.97;;;4.00;;
34491;SDS011;20737;49.908;8.126;2022-11-18T06:36:55;6.10;;;3.85;;
34491;SDS011;20737;49.908;8.126;2022-11-18T06:39:22;7.18;;;3.28;;
34491;SDS011;20737;49.908;8.126;2022-11-18T06:41:52;8.35;;;4.28;;
34491;SDS011;20737;49.908;8.126;2022-11-18T06:44:19;4.75;;;3.35;;
34491;SDS011;20737;49.908;8.126;2022-11-18T06:46:44;3.72;;;2.75;;
34491;SDS011;20737;49.908;8.126;2022-11-18T06:49:21;6.85;;;3.50;;
34491;SDS011;20737;49.908;8.126;2022-11-18T06:51:48;6.10;;;3.38;;
34491;SDS011;20737;49.908;8.126;2022-11-18T06:54:14;8.13;;;3.72;;
34491;SDS011;20737;49.908;8.126;2022-11-18T06:56:41;9.95;;;3.97;;
34491;SDS011;20737;49.908;8.126;2022-11-18T06:59:09;4.38;;;3.42;;
34491;SDS011;20737;49.908;8.126;2022-11-18T07:01:37;5.80;;;3.33;;
34491;SDS011;20737;49.908;8.126;2022-11-18T07:04:08;6.60;;;3.78;;
34491;SDS011;20737;49.908;8.126;2022-11-18T07:06:34;6.15;;;3.40;;
34491;SDS011;20737;49.908;8.126;2022-11-18T07:09:02;4.53;;;3.80;;
34491;SDS011;20737;49.908;8.126;2022-11-18T07:11:31;3.88;;;3.13;;
34491;SDS011;20737;49.908;8.126;2022-11-18T07:13:58;2.67;;;2.03;;
34491;SDS011;20737;49.908;8.126;2022-11-18T07:16:26;3.60;;;2.30;;
34491;SDS011;20737;49.908;8.126;2022-11-18T07:18:54;3.20;;;1.88;;
34491;SDS011;20737;49.908;8.126;2022-11-18T07:21:22;3.13;;;1.70;;
34491;SDS011;20737;49.908;8.126;2022-11-18T07:23:49;2.92;;;2.00;;
34491;SDS011;20737;49.908;8.126;2022-11-18T07:26:16;3.22;;;1.60;;
34491;SDS011;20737;49.908;8.126;2022-11-18T07:28:43;1.52;;;1.25;;
34491;SDS011;20737;49.908;8.126;2022-11-18T07:31:11;2.45;;;1.52;;
34491;SDS011;20737;49.908;8.126;2022-11-18T07:33:41;3.13;;;1.73;;
34491;SDS011;20737;49.908;8.126;2022-11-18T07:36:09;5.70;;;1.30;;
34491;SDS011;20737;49.908;8.126;2022-11-18T07:38:37;1.40;;;1.27;;
34491;SDS011;20737;49.908;8.126;2022-11-18T07:41:05;1.60;;;1.25;;
34491;SDS011;20737;49.908;8.126;2022-11-18T07:43:33;1.40;;;1.30;;
34491;SDS011;20737;49.908;8.126;2022-11-18T07:46:07;3.58;;;1.60;;
34491;SDS011;20737;49.908;8.126;2022-11-18T07:48:38;4.72;;;1.45;;
34491;SDS011;20737;49.908;8.126;2022-11-18T07:51:07;2.08;;;1.10;;
34491;SDS011;20737;49.908;8.126;2022-11-18T07:53:34;1.48;;;1.38;;
34491;SDS011;20737;49.908;8.126;2022-11-18T07:56:02;2.67;;;1.27;;
34491;SDS011;20737;49.908;8.126;2022-11-18T07:58:29;2.65;;;1.23;;
34491;SDS011;20737;49.908;8.126;2022-11-18T08:00:56;3.30;;;1.77;;
34491;SDS011;20737;49.908;8.126;2022-11-18T08:03:23;1.52;;;1.42;;
34491;SDS011;20737;49.908;8.126;2022-11-18T08:05:53;2.00;;;0.85;;
34491;SDS011;20737;49.908;8.126;2022-11-18T08:08:23;1.50;;;0.82;;
34491;SDS011;20737;49.908;8.126;2022-11-18T08:10:50;3.13;;;1.70;;
34491;SDS011;20737;49.908;8.126;2022-11-18T08:13:20;3.33;;;1.30;;
34491;SDS011;20737;49.908;8.126;2022-11-18T08:15:46;3.42;;;1.27;;
34491;SDS011;20737;49.908;8.126;2022-11-18T08:18:13;4.43;;;1.88;;
34491;SDS011;20737;49.908;8.126;2022-11-18T08:20:40;1.13;;;0.85;;
34491;SDS011;20737;49.908;8.126;2022-11-18T08:23:08;1.55;;;0.77;;
34491;SDS011;20737;49.908;8.126;2022-11-18T08:25:34;0.88;;;0.63;;
34491;SDS011;20737;49.908;8.126;2022-11-18T08:28:01;1.13;;;0.43;;
34491;SDS011;20737;49.908;8.126;2022-11-18T08:30:28;0.82;;;0.57;;
34491;SDS011;20737;49.908;8.126;2022-11-18T08:32:55;0.57;;;0.50;;
34491;SDS011;20737;49.908;8.126;2022-11-18T08:35:21;0.40;;;0.30;;
34491;SDS011;20737;49.908;8.126;2022-11-18T08:37:48;3.58;;;0.55;;
34491;SDS011;20737;49.908;8.126;2022-11-18T08:40:16;1.55;;;0.45;;
34491;SDS011;20737;49.908;8.126;2022-11-18T08:42:43;0.52;;;0.52;;
34491;SDS011;20737;49.908;8.126;2022-11-18T08:45:10;1.08;;;0.45;;
34491;SDS011;20737;49.908;8.126;2022-11-18T08:47:37;0.68;;;0.55;;
34491;SDS011;20737;49.908;8.126;2022-11-18T08:50:05;1.67;;;0.50;;
34491;SDS011;20737;49.908;8.126;2022-11-18T08:52:33;1.77;;;0.70;;
34491;SDS011;20737;49.908;8.126;2022-11-18T08:55:00;0.40;;;0.40;;
34491;SDS011;20737;49.908;8.126;2022-11-18T08:57:28;1.38;;;0.70;;
34491;SDS011;20737;49.908;8.126;2022-11-18T08:59:55;0.57;;;0.57;;
34491;SDS011;20737;49.908;8.126;2022-11-18T09:02:22;0.60;;;0.52;;
34491;SDS011;20737;49.908;8.126;2022-11-18T09:04:49;2.40;;;0.70;;
34491;SDS011;20737;49.908;8.126;2022-11-18T09:07:17;0.82;;;0.82;;
34491;SDS011;20737;49.908;8.126;2022-11-18T09:09:44;1.95;;;0.82;;
34491;SDS011;20737;49.908;8.126;2022-11-18T09:12:10;1.73;;;0.70;;
34491;SDS011;20737;49.908;8.126;2022-11-18T09:14:41;1.30;;;0.80;;
34491;SDS011;20737;49.908;8.126;2022-11-18T09:17:08;1.48;;;1.00;;
34491;SDS011;20737;49.908;8.126;2022-11-18T09:19:35;1.65;;;0.60;;
34491;SDS011;20737;49.908;8.126;2022-11-18T09:22:02;0.90;;;0.80;;
34491;SDS011;20737;49.908;8.126;2022-11-18T09:24:29;0.60;;;0.60;;
34491;SDS011;20737;49.908;8.126;2022-11-18T09:26:56;0.70;;;0.50;;
34491;SDS011;20737;49.908;8.126;2022-11-18T09:29:23;1.65;;;0.90;;
34491;SDS011;20737;49.908;8.126;2022-11-18T09:31:51;0.45;;;0.40;;
34491;SDS011;20737;49.908;8.126;2022-11-18T09:34:19;0.85;;;0.63;;
34491;SDS011;20737;49.908;8.126;2022-11-18T09:36:45;0.80;;;0.60;;
34491;SDS011;20737;49.908;8.126;2022-11-18T09:39:12;1.02;;;0.50;;
34491;SDS011;20737;49.908;8.126;2022-11-18T09:41:43;0.77;;;0.70;;
34491;SDS011;20737;49.908;8.126;2022-11-18T09:44:25;1.25;;;0.57;;
34491;SDS011;20737;49.908;8.126;2022-11-18T09:47:06;1.42;;;0.95;;
34491;SDS011;20737;49.908;8.126;2022-11-18T09:49:44;0.65;;;0.60;;
34491;SDS011;20737;49.908;8.126;2022-11-18T09:52:17;0.75;;;0.60;;
34491;SDS011;20737;49.908;8.126;2022-11-18T09:54:47;1.75;;;0.70;;
34491;SDS011;20737;49.908;8.126;2022-11-18T09:57:16;3.03;;;0.90;;
34491;SDS011;20737;49.908;8.126;2022-11-18T09:59:45;0.90;;;0.80;;
34491;SDS011;20737;49.908;8.126;2022-11-18T10:02:24;1.95;;;0.95;;
34491;SDS011;20737;49.908;8.126;2022-11-18T10:04:54;2.17;;;0.90;;
34491;SDS011;20737;49.908;8.126;2022-11-18T10:07:26;0.93;;;0.82;;
34491;SDS011;20737;49.908;8.126;2022-11-18T10:10:00;2.78;;;0.95;;
34491;SDS011;20737;49.908;8.126;2022-11-18T10:12:31;1.95;;;0.70;;
34491;SDS011;20737;49.908;8.126;2022-11-18T10:15:09;2.13;;;0.85;;
34491;SDS011;20737;49.908;8.126;2022-11-18T10:17:45;1.98;;;0.90;;
34491;SDS011;20737;49.908;8.126;2022-11-18T10:20:26;1.48;;;0.98;;
34491;SDS011;20737;49.908;8.126;2022-11-18T10:23:00;1.40;;;0.90;;
34491;SDS011;20737;49.908;8.126;2022-11-18T10:25:33;1.10;;;0.88;;
34491;SDS011;20737;49.908;8.126;2022-11-18T10:28:05;0.80;;;0.70;;
34491;SDS011;20737;49.908;8.126;2022-11-18T10:30:42;1.95;;;0.98;;
34491;SDS011;20737;49.908;8.126;2022-11-18T10:33:26;0.93;;;0.93;;
34491;SDS011;20737;49.908;8.126;2022-11-18T10:36:07;2.15;;;1.05;;
34491;SDS011;20737;49.908;8.126;2022-11-18T10:38:37;1.08;;;0.98;;
34491;SDS011;20737;49.908;8.126;2022-11-18T10:41:04;1.83;;;1.10;;
34491;SDS011;20737;49.908;8.126;2022-11-18T10:43:43;0.88;;;0.88;;
34491;SDS011;20737;49.908;8.126;2022-11-18T10:46:16;1.05;;;0.90;;
34491;SDS011;20737;49.908;8.126;2022-11-18T10:48:59;1.55;;;1.02;;
34491;SDS011;20737;49.908;8.126;2022-11-18T10:51:38;0.88;;;0.85;;
34491;SDS011;20737;49.908;8.126;2022-11-18T10:54:06;2.85;;;1.08;;
34491;SDS011;20737;49.908;8.126;2022-11-18T10:56:42;4.10;;;1.00;;
34491;SDS011;20737;49.908;8.126;2022-11-18T10:59:12;1.45;;;1.00;;
34491;SDS011;20737;49.908;8.126;2022-11-18T11:01:56;2.42;;;1.15;;
34491;SDS011;20737;49.908;8.126;2022-11-18T11:04:28;1.02;;;0.90;;
34491;SDS011;20737;49.908;8.126;2022-11-18T11:06:56;2.05;;;1.08;;
34491;SDS011;20737;49.908;8.126;2022-11-18T11:09:27;2.10;;;1.13;;
34491;SDS011;20737;49.908;8.126;2022-11-18T11:11:56;2.42;;;1.13;;
34491;SDS011;20737;49.908;8.126;2022-11-18T11:14:26;1.40;;;1.17;;
34491;SDS011;20737;49.908;8.126;2022-11-18T11:16:58;3.22;;;1.88;;
34491;SDS011;20737;49.908;8.126;2022-11-18T11:19:32;2.05;;;1.27;;
34491;SDS011;20737;49.908;8.126;2022-11-18T11:22:07;2.70;;;1.20;;
34491;SDS011;20737;49.908;8.126;2022-11-18T11:24:35;2.80;;;1.42;;
34491;SDS011;20737;49.908;8.126;2022-11-18T11:27:04;2.10;;;1.80;;
34491;SDS011;20737;49.908;8.126;2022-11-18T11:30:03;4.00;;;1.48;;
34491;SDS011;20737;49.908;8.126;2022-11-18T11:35:40;3.38;;;1.50;;
34491;SDS011;20737;49.908;8.126;2022-11-18T11:38:30;2.75;;;1.30;;
34491;SDS011;20737;49.908;8.126;2022-11-18T11:41:09;1.35;;;1.25;;
34491;SDS011;20737;49.908;8.126;2022-11-18T11:43:48;1.83;;;1.25;;
34491;SDS011;20737;49.908;8.126;2022-11-18T11:46:36;2.78;;;1.20;;
34491;SDS011;20737;49.908;8.126;2022-11-18T11:49:37;2.00;;;0.90;;
34491;SDS011;20737;49.908;8.126;2022-11-18T11:52:16;2.63;;;1.23;;
34491;SDS011;20737;49.908;8.126;2022-11-18T11:54:52;1.80;;;1.40;;
34491;SDS011;20737;49.908;8.126;2022-11-18T11:57:28;1.95;;;0.98;;
34491;SDS011;20737;49.908;8.126;2022-11-18T12:00:06;3.67;;;1.00;;
34491;SDS011;20737;49.908;8.126;2022-11-18T12:02:47;1.17;;;0.90;;
34491;SDS011;20737;49.908;8.126;2022-11-18T12:05:21;1.85;;;0.70;;
34491;SDS011;20737;49.908;8.126;2022-11-18T12:07:56;0.98;;;0.55;;
34491;SDS011;20737;49.908;8.126;2022-11-18T12:10:34;1.92;;;0.93;;
34491;SDS011;20737;49.908;8.126;2022-11-18T12:13:11;3.05;;;0.70;;
34491;SDS011;20737;49.908;8.126;2022-11-18T12:15:48;1.50;;;0.80;;
34491;SDS011;20737;49.908;8.126;2022-11-18T12:18:25;3.35;;;0.98;;
34491;SDS011;20737;49.908;8.126;2022-11-18T12:20:58;2.30;;;0.88;;
34491;SDS011;20737;49.908;8.126;2022-11-18T12:23:27;2.90;;;1.00;;
34491;SDS011;20737;49.908;8.126;2022-11-18T12:25:59;1.17;;;0.70;;
34491;SDS011;20737;49.908;8.126;2022-11-18T12:28:29;1.05;;;0.75;;
34491;SDS011;20737;49.908;8.126;2022-11-18T12:34:18;2.40;;;0.80;;
34491;SDS011;20737;49.908;8.126;2022-11-18T12:36:54;2.35;;;0.93;;
34491;SDS011;20737;49.908;8.126;2022-11-18T12:42:36;1.08;;;0.88;;
34491;SDS011;20737;49.908;8.126;2022-11-18T12:48:25;1.70;;;1.10;;
34491;SDS011;20737;49.908;8.126;2022-11-18T12:51:35;2.25;;;1.40;;
34491;SDS011;20737;49.908;8.126;2022-11-18T12:54:14;1.35;;;1.00;;
34491;SDS011;20737;49.908;8.126;2022-11-18T12:56:52;3.40;;;1.25;;
34491;SDS011;20737;49.908;8.126;2022-11-18T12:59:27;3.97;;;1.10;;
34491;SDS011;20737;49.908;8.126;2022-11-18T13:02:14;1.05;;;0.60;;
34491;SDS011;20737;49.908;8.126;2022-11-18T13:04:44;2.60;;;0.60;;
34491;SDS011;20737;49.908;8.126;2022-11-18T13:07:11;2.20;;;0.68;;
34491;SDS011;20737;49.908;8.126;2022-11-18T13:09:52;2.88;;;0.70;;
34491;SDS011;20737;49.908;8.126;2022-11-18T13:12:20;1.58;;;0.80;;
34491;SDS011;20737;49.908;8.126;2022-11-18T13:14:51;2.58;;;0.80;;
34491;SDS011;20737;49.908;8.126;2022-11-18T13:17:38;1.38;;;0.70;;
34491;SDS011;20737;49.908;8.126;2022-11-18T13:20:19;2.15;;;0.80;;
34491;SDS011;20737;49.908;8.126;2022-11-18T13:22:48;2.55;;;0.80;;
34491;SDS011;20737;49.908;8.126;2022-11-18T13:25:33;2.30;;;0.93;;
34491;SDS011;20737;49.908;8.126;2022-11-18T13:28:03;4.10;;;0.90;;
34491;SDS011;20737;49.908;8.126;2022-11-18T13:30:41;3.88;;;0.90;;
34491;SDS011;20737;49.908;8.126;2022-11-18T13:33:15;2.28;;;1.02;;
34491;SDS011;20737;49.908;8.126;2022-11-18T13:35:42;3.47;;;0.98;;
34491;SDS011;20737;49.908;8.126;2022-11-18T13:38:17;2.63;;;0.90;;
34491;SDS011;20737;49.908;8.126;2022-11-18T13:40:46;3.00;;;0.90;;
34491;SDS011;20737;49.908;8.126;2022-11-18T13:43:30;1.63;;;0.80;;
34491;SDS011;20737;49.908;8.126;2022-11-18T13:45:57;3.88;;;1.20;;
34491;SDS011;20737;49.908;8.126;2022-11-18T13:48:26;2.53;;;0.90;;
34491;SDS011;20737;49.908;8.126;2022-11-18T13:50:53;0.80;;;0.80;;
34491;SDS011;20737;49.908;8.126;2022-11-18T13:53:25;2.00;;;1.30;;
34491;SDS011;20737;49.908;8.126;2022-11-18T13:55:54;5.93;;;1.85;;
34491;SDS011;20737;49.908;8.126;2022-11-18T13:58:35;1.67;;;1.10;;
34491;SDS011;20737;49.908;8.126;2022-11-18T14:01:04;5.13;;;1.25;;
34491;SDS011;20737;49.908;8.126;2022-11-18T14:03:40;2.97;;;1.17;;
34491;SDS011;20737;49.908;8.126;2022-11-18T14:06:22;3.80;;;1.15;;
34491;SDS011;20737;49.908;8.126;2022-11-18T14:08:50;1.90;;;0.77;;
34491;SDS011;20737;49.908;8.126;2022-11-18T14:11:34;2.50;;;0.90;;
34491;SDS011;20737;49.908;8.126;2022-11-18T14:14:03;4.78;;;1.00;;
34491;SDS011;20737;49.908;8.126;2022-11-18T14:16:31;3.25;;;1.02;;
34491;SDS011;20737;49.908;8.126;2022-11-18T14:19:00;3.40;;;0.90;;
34491;SDS011;20737;49.908;8.126;2022-11-18T14:21:27;1.58;;;0.80;;
34491;SDS011;20737;49.908;8.126;2022-11-18T14:23:56;1.98;;;0.75;;
34491;SDS011;20737;49.908;8.126;2022-11-18T14:26:27;1.98;;;0.80;;
34491;SDS011;20737;49.908;8.126;2022-11-18T14:28:56;4.50;;;1.20;;
34491;SDS011;20737;49.908;8.126;2022-11-18T14:31:26;7.22;;;1.60;;
34491;SDS011;20737;49.908;8.126;2022-11-18T14:34:04;2.05;;;1.00;;
34491;SDS011;20737;49.908;8.126;2022-11-18T14:36:41;2.70;;;0.75;;
34491;SDS011;20737;49.908;8.126;2022-11-18T14:39:11;2.72;;;1.10;;
34491;SDS011;20737;49.908;8.126;2022-11-18T14:41:44;2.60;;;1.48;;
34491;SDS011;20737;49.908;8.126;2022-11-18T14:44:14;2.65;;;1.20;;
34491;SDS011;20737;49.908;8.126;2022-11-18T14:46:43;2.53;;;1.45;;
34491;SDS011;20737;49.908;8.126;2022-11-18T14:49:13;7.90;;;3.45;;
34491;SDS011;20737;49.908;8.126;2022-11-18T14:51:42;6.43;;;3.58;;
34491;SDS011;20737;49.908;8.126;2022-11-18T14:54:10;8.35;;;4.57;;
34491;SDS011;20737;49.908;8.126;2022-11-18T14:56:38;6.18;;;3.13;;
34491;SDS011;20737;49.908;8.126;2022-11-18T14:59:05;6.00;;;3.50;;
34491;SDS011;20737;49.908;8.126;2022-11-18T15:01:32;7.55;;;3.63;;
34491;SDS011;20737;49.908;8.126;2022-11-18T15:04:00;5.97;;;4.00;;
34491;SDS011;20737;49.908;8.126;2022-11-18T15:06:27;5.90;;;3.80;;
34491;SDS011;20737;49.908;8.126;2022-11-18T15:08:54;7.35;;;4.22;;
34491;SDS011;20737;49.908;8.126;2022-11-18T15:11:21;6.05;;;3.50;;
34491;SDS011;20737;49.908;8.126;2022-11-18T15:13:47;8.18;;;3.65;;
34491;SDS011;20737;49.908;8.126;2022-11-18T15:16:15;3.92;;;3.28;;
34491;SDS011;20737;49.908;8.126;2022-11-18T15:18:44;3.30;;;3.00;;
34491;SDS011;20737;49.908;8.126;2022-11-18T15:21:13;7.20;;;2.80;;
34491;SDS011;20737;49.908;8.126;2022-11-18T15:23:41;3.33;;;2.15;;
34491;SDS011;20737;49.908;8.126;2022-11-18T15:26:11;4.90;;;1.63;;
34491;SDS011;20737;49.908;8.126;2022-11-18T15:28:42;2.53;;;1.10;;